createdAt,value
2017-12-02T00:00:24.020Z,0
2017-12-02T00:01:04.558Z,0
2017-12-02T00:01:45.079Z,0
2017-12-02T00:02:25.661Z,0
2017-12-02T00:03:06.185Z,0
2017-12-02T00:03:46.739Z,0
2017-12-02T00:04:27.296Z,0
2017-12-02T00:05:07.846Z,0
2017-12-02T00:05:48.348Z,0
2017-12-02T00:06:28.891Z,0
2017-12-02T00:07:09.414Z,0
2017-12-02T00:07:49.914Z,0
2017-12-02T00:08:30.477Z,0
2017-12-02T00:09:10.994Z,0
2017-12-02T00:09:51.499Z,0
2017-12-02T00:10:32.107Z,0
2017-12-02T00:11:12.636Z,0
2017-12-02T00:11:53.224Z,0
2017-12-02T00:12:33.755Z,0
2017-12-02T00:13:14.248Z,0
2017-12-02T00:13:54.835Z,0
2017-12-02T00:14:35.336Z,0
2017-12-02T00:15:15.894Z,0
2017-12-02T00:15:56.407Z,0
2017-12-02T00:16:36.959Z,0
2017-12-02T00:17:17.507Z,0
2017-12-02T00:17:58.065Z,0
2017-12-02T00:18:38.628Z,0
2017-12-02T00:19:19.151Z,0
2017-12-02T00:19:59.663Z,0
2017-12-02T00:20:40.237Z,0
2017-12-02T00:21:20.781Z,0
2017-12-02T00:22:01.328Z,0
2017-12-02T00:22:41.861Z,0
2017-12-02T00:23:22.409Z,0
2017-12-02T00:24:02.969Z,0
2017-12-02T00:24:43.450Z,0
2017-12-02T00:25:23.996Z,0
2017-12-02T00:26:04.524Z,0
2017-12-02T00:26:45.063Z,0
2017-12-02T00:27:25.566Z,0
2017-12-02T00:28:06.113Z,0
2017-12-02T00:28:46.644Z,0
2017-12-02T00:29:27.161Z,0
2017-12-02T00:30:07.680Z,0
2017-12-02T00:30:48.200Z,0
2017-12-02T00:31:28.738Z,0
2017-12-02T00:32:09.273Z,0
2017-12-02T00:32:49.824Z,0
2017-12-02T00:33:30.321Z,0
2017-12-02T00:34:10.869Z,0
2017-12-02T00:34:51.413Z,0
2017-12-02T00:35:31.952Z,0
2017-12-02T00:36:12.480Z,0
2017-12-02T00:36:53.024Z,0
2017-12-02T00:37:33.537Z,0
2017-12-02T00:38:14.064Z,0
2017-12-02T00:38:54.605Z,0
2017-12-02T00:39:35.131Z,0
2017-12-02T00:40:15.665Z,0
2017-12-02T00:40:56.174Z,0
2017-12-02T00:41:36.723Z,0
2017-12-02T00:42:17.251Z,0
2017-12-02T00:42:57.787Z,0
2017-12-02T00:43:38.316Z,0
2017-12-02T00:44:18.835Z,0
2017-12-02T00:44:59.341Z,0
2017-12-02T00:45:39.903Z,0
2017-12-02T00:46:20.459Z,0
2017-12-02T00:47:00.950Z,0
2017-12-02T00:47:41.482Z,0
2017-12-02T00:48:22.001Z,0
2017-12-02T00:49:02.553Z,0
2017-12-02T00:49:43.094Z,0
2017-12-02T00:50:23.636Z,0
2017-12-02T00:51:04.188Z,0
2017-12-02T00:51:44.728Z,0
2017-12-02T00:52:25.227Z,0
2017-12-02T00:53:05.766Z,0
2017-12-02T00:53:46.319Z,0
2017-12-02T00:54:26.856Z,0
2017-12-02T00:55:07.416Z,0
2017-12-02T00:55:47.922Z,0
2017-12-02T00:56:28.474Z,0
2017-12-02T00:57:08.946Z,0
2017-12-02T00:57:49.456Z,0
2017-12-02T00:58:29.974Z,0
2017-12-02T00:59:10.470Z,0
2017-12-02T00:59:51.013Z,0
2017-12-02T01:00:31.559Z,0
2017-12-02T01:01:12.082Z,0
2017-12-02T01:01:52.614Z,0
2017-12-02T01:02:33.167Z,0
2017-12-02T01:03:13.789Z,0
2017-12-02T01:03:54.286Z,0
2017-12-02T01:04:34.832Z,0
2017-12-02T01:05:15.948Z,0
2017-12-02T01:05:56.529Z,0
2017-12-02T01:06:37.018Z,0
2017-12-02T01:07:17.528Z,0
2017-12-02T01:07:58.057Z,0
2017-12-02T01:08:38.625Z,0
2017-12-02T01:09:19.140Z,0
2017-12-02T01:09:59.658Z,0
2017-12-02T01:10:40.199Z,0
2017-12-02T01:11:20.740Z,0
2017-12-02T01:12:01.285Z,0
2017-12-02T01:12:41.828Z,0
2017-12-02T01:13:22.367Z,0
2017-12-02T01:14:02.923Z,0
2017-12-02T01:14:43.443Z,0
2017-12-02T01:15:23.960Z,0
2017-12-02T01:16:04.524Z,0
2017-12-02T01:16:45.054Z,0
2017-12-02T01:17:25.575Z,0
2017-12-02T01:18:06.126Z,0
2017-12-02T01:18:46.645Z,0
2017-12-02T01:19:27.163Z,0
2017-12-02T01:20:07.712Z,0
2017-12-02T01:20:48.264Z,0
2017-12-02T01:21:28.772Z,0
2017-12-02T01:22:09.323Z,0
2017-12-02T01:22:49.849Z,0
2017-12-02T01:23:30.398Z,0
2017-12-02T01:24:10.928Z,0
2017-12-02T01:24:51.437Z,0
2017-12-02T01:25:31.974Z,0
2017-12-02T01:26:12.478Z,0
2017-12-02T01:26:53.012Z,0
2017-12-02T01:27:33.542Z,0
2017-12-02T01:28:14.075Z,0
2017-12-02T01:28:54.606Z,0
2017-12-02T01:29:35.122Z,0
2017-12-02T01:30:15.706Z,0
2017-12-02T01:30:56.197Z,0
2017-12-02T01:31:36.749Z,0
2017-12-02T01:32:17.316Z,0
2017-12-02T01:32:57.839Z,0
2017-12-02T01:33:38.362Z,0
2017-12-02T01:34:18.925Z,0
2017-12-02T01:34:59.403Z,0
2017-12-02T01:35:39.944Z,0
2017-12-02T01:36:20.472Z,0
2017-12-02T01:37:01.063Z,0
2017-12-02T01:37:41.580Z,0
2017-12-02T01:38:22.076Z,0
2017-12-02T01:39:02.628Z,0
2017-12-02T01:39:43.171Z,0
2017-12-02T01:40:23.694Z,0
2017-12-02T01:41:04.264Z,0
2017-12-02T01:41:44.790Z,0
2017-12-02T01:42:25.332Z,0
2017-12-02T01:43:05.866Z,0
2017-12-02T01:43:46.380Z,0
2017-12-02T01:44:26.929Z,0
2017-12-02T01:45:07.466Z,0
2017-12-02T01:45:48.018Z,0
2017-12-02T01:46:28.548Z,0
2017-12-02T01:47:09.083Z,0
2017-12-02T01:47:49.641Z,0
2017-12-02T01:48:30.139Z,0
2017-12-02T01:49:10.676Z,0
2017-12-02T01:49:51.196Z,0
2017-12-02T01:50:31.768Z,0
2017-12-02T01:51:12.299Z,0
2017-12-02T01:51:52.855Z,0
2017-12-02T01:52:33.402Z,0
2017-12-02T01:53:13.916Z,0
2017-12-02T01:53:54.460Z,0
2017-12-02T01:54:34.991Z,0
2017-12-02T01:55:15.540Z,0
2017-12-02T01:55:56.065Z,0
2017-12-02T01:56:36.609Z,0
2017-12-02T01:57:17.120Z,0
2017-12-02T01:57:57.653Z,0
2017-12-02T01:58:38.194Z,0
2017-12-02T01:59:18.740Z,0
2017-12-02T01:59:59.284Z,0
2017-12-02T02:00:39.824Z,0
2017-12-02T02:01:20.372Z,0
2017-12-02T02:02:00.845Z,0
2017-12-02T02:02:41.397Z,0
2017-12-02T02:03:21.933Z,0
2017-12-02T02:04:02.442Z,0
2017-12-02T02:04:42.949Z,0
2017-12-02T02:05:23.495Z,0
2017-12-02T02:06:04.041Z,0
2017-12-02T02:06:44.537Z,0
2017-12-02T02:07:25.049Z,0
2017-12-02T02:08:05.607Z,0
2017-12-02T02:08:46.153Z,0
2017-12-02T02:09:26.694Z,0
2017-12-02T02:10:07.234Z,0
2017-12-02T02:10:47.812Z,0
2017-12-02T02:11:28.353Z,0
2017-12-02T02:12:08.912Z,0
2017-12-02T02:12:49.414Z,0
2017-12-02T02:13:29.945Z,0
2017-12-02T02:14:10.519Z,0
2017-12-02T02:14:51.004Z,0
2017-12-02T02:15:31.529Z,0
2017-12-02T02:16:12.083Z,0
2017-12-02T02:16:52.605Z,0
2017-12-02T02:17:33.099Z,0
2017-12-02T02:18:13.650Z,0
2017-12-02T02:18:54.149Z,0
2017-12-02T02:19:34.689Z,0
2017-12-02T02:20:15.223Z,0
2017-12-02T02:20:55.746Z,0
2017-12-02T02:21:36.291Z,0
2017-12-02T02:22:16.812Z,0
2017-12-02T02:22:57.375Z,0
2017-12-02T02:23:37.919Z,0
2017-12-02T02:24:18.428Z,0
2017-12-02T02:24:58.969Z,0
2017-12-02T02:25:39.526Z,0
2017-12-02T02:26:20.072Z,0
2017-12-02T02:27:00.581Z,0
2017-12-02T02:27:41.145Z,0
2017-12-02T02:28:21.687Z,0
2017-12-02T02:29:02.258Z,0
2017-12-02T02:29:42.803Z,0
2017-12-02T02:30:23.295Z,0
2017-12-02T02:31:03.828Z,0
2017-12-02T02:31:44.380Z,0
2017-12-02T02:32:24.902Z,0
2017-12-02T02:33:05.434Z,0
2017-12-02T02:33:46.002Z,0
2017-12-02T02:34:26.485Z,0
2017-12-02T02:35:07.039Z,0
2017-12-02T02:35:47.568Z,0
2017-12-02T02:36:28.094Z,0
2017-12-02T02:37:08.723Z,0
2017-12-02T02:37:49.270Z,0
2017-12-02T02:38:29.779Z,0
2017-12-02T02:39:10.308Z,0
2017-12-02T02:39:50.890Z,0
2017-12-02T02:40:31.434Z,0
2017-12-02T02:41:11.962Z,0
2017-12-02T02:41:52.439Z,0
2017-12-02T02:42:32.978Z,0
2017-12-02T02:43:13.588Z,0
2017-12-02T02:43:54.095Z,0
2017-12-02T02:44:34.632Z,0
2017-12-02T02:45:15.178Z,0
2017-12-02T02:45:55.701Z,0
2017-12-02T02:46:36.194Z,0
2017-12-02T02:47:16.729Z,0
2017-12-02T02:47:57.264Z,0
2017-12-02T02:48:37.810Z,0
2017-12-02T02:49:18.350Z,0
2017-12-02T02:49:58.902Z,0
2017-12-02T02:50:39.395Z,0
2017-12-02T02:51:19.943Z,0
2017-12-02T02:52:00.480Z,0
2017-12-02T02:52:41.010Z,0
2017-12-02T02:53:21.532Z,0
2017-12-02T02:54:02.107Z,0
2017-12-02T02:54:42.609Z,0
2017-12-02T02:55:23.111Z,0
2017-12-02T02:56:03.680Z,0
2017-12-02T02:56:44.225Z,0
2017-12-02T02:57:24.823Z,0
2017-12-02T02:58:05.338Z,0
2017-12-02T02:58:45.843Z,0
2017-12-02T02:59:26.351Z,0
2017-12-02T03:00:06.886Z,0
2017-12-02T03:00:47.437Z,0
2017-12-02T03:01:27.979Z,0
2017-12-02T03:02:08.545Z,0
2017-12-02T03:02:49.080Z,0
2017-12-02T03:03:29.611Z,0
2017-12-02T03:04:10.210Z,0
2017-12-02T03:04:50.725Z,0
2017-12-02T03:05:31.286Z,0
2017-12-02T03:06:11.823Z,0
2017-12-02T03:06:52.307Z,0
2017-12-02T03:07:32.844Z,0
2017-12-02T03:08:13.425Z,0
2017-12-02T03:08:53.951Z,0
2017-12-02T03:09:34.490Z,0
2017-12-02T03:10:15.021Z,0
2017-12-02T03:10:55.675Z,0
2017-12-02T03:11:36.170Z,0
2017-12-02T03:12:16.697Z,0
2017-12-02T03:12:57.203Z,0
2017-12-02T03:13:37.733Z,0
2017-12-02T03:14:18.278Z,0
2017-12-02T03:14:58.825Z,0
2017-12-02T03:15:39.381Z,0
2017-12-02T03:16:19.924Z,0
2017-12-02T03:17:00.447Z,0
2017-12-02T03:17:40.983Z,0
2017-12-02T03:18:21.518Z,0
2017-12-02T03:19:02.094Z,0
2017-12-02T03:19:42.582Z,0
2017-12-02T03:20:23.123Z,0
2017-12-02T03:21:03.703Z,0
2017-12-02T03:21:44.203Z,0
2017-12-02T03:22:24.757Z,0
2017-12-02T03:23:05.390Z,0
2017-12-02T03:23:45.933Z,0
2017-12-02T03:24:26.458Z,0
2017-12-02T03:25:06.983Z,0
2017-12-02T03:25:47.534Z,0
2017-12-02T03:26:28.059Z,0
2017-12-02T03:27:08.594Z,0
2017-12-02T03:27:49.072Z,0
2017-12-02T03:28:29.620Z,0
2017-12-02T03:29:10.143Z,0
2017-12-02T03:29:50.722Z,0
2017-12-02T03:30:31.237Z,0
2017-12-02T03:31:11.796Z,0
2017-12-02T03:31:52.337Z,0
2017-12-02T03:32:32.843Z,0
2017-12-02T03:33:13.366Z,0
2017-12-02T03:33:53.903Z,0
2017-12-02T03:34:34.423Z,0
2017-12-02T03:35:14.961Z,0
2017-12-02T03:35:55.480Z,0
2017-12-02T03:36:35.979Z,0
2017-12-02T03:37:16.517Z,0
2017-12-02T03:37:57.046Z,0
2017-12-02T03:38:37.566Z,0
2017-12-02T03:39:18.093Z,0
2017-12-02T03:39:58.590Z,0
2017-12-02T03:40:39.158Z,0
2017-12-02T03:41:19.692Z,0
2017-12-02T03:42:00.259Z,0
2017-12-02T03:42:40.795Z,0
2017-12-02T03:43:21.380Z,0
2017-12-02T03:44:01.868Z,0
2017-12-02T03:44:42.346Z,0
2017-12-02T03:45:22.897Z,0
2017-12-02T03:46:03.448Z,0
2017-12-02T03:46:43.973Z,0
2017-12-02T03:47:24.528Z,0
2017-12-02T03:48:05.040Z,0
2017-12-02T03:48:45.535Z,0
2017-12-02T03:49:26.060Z,0
2017-12-02T03:50:06.604Z,0
2017-12-02T03:50:47.162Z,0
2017-12-02T03:51:27.682Z,0
2017-12-02T03:52:08.158Z,0
2017-12-02T03:52:48.711Z,0
2017-12-02T03:53:29.272Z,0
2017-12-02T03:54:09.803Z,0
2017-12-02T03:54:50.356Z,0
2017-12-02T03:55:30.889Z,0
2017-12-02T03:56:11.412Z,0
2017-12-02T03:56:51.945Z,0
2017-12-02T03:57:32.498Z,0
2017-12-02T03:58:12.994Z,0
2017-12-02T03:58:53.512Z,0
2017-12-02T03:59:34.041Z,0
2017-12-02T04:00:14.603Z,0
2017-12-02T04:00:55.113Z,0
2017-12-02T04:01:35.672Z,0
2017-12-02T04:02:16.173Z,0
2017-12-02T04:02:56.681Z,0
2017-12-02T04:03:37.246Z,0
2017-12-02T04:04:17.761Z,0
2017-12-02T04:04:58.311Z,0
2017-12-02T04:05:38.878Z,0
2017-12-02T04:06:19.466Z,0
2017-12-02T04:07:00.013Z,0
2017-12-02T04:07:40.516Z,0
2017-12-02T04:08:21.091Z,0
2017-12-02T04:09:01.617Z,0
2017-12-02T04:09:42.115Z,0
2017-12-02T04:10:22.666Z,0
2017-12-02T04:11:03.226Z,0
2017-12-02T04:11:43.732Z,0
2017-12-02T04:12:24.313Z,0
2017-12-02T04:13:04.834Z,0
2017-12-02T04:13:45.365Z,0
2017-12-02T04:14:25.913Z,0
2017-12-02T04:15:06.422Z,0
2017-12-02T04:15:46.951Z,0
2017-12-02T04:16:27.542Z,0
2017-12-02T04:17:08.018Z,0
2017-12-02T04:17:48.525Z,0
2017-12-02T04:18:29.040Z,0
2017-12-02T04:19:09.625Z,0
2017-12-02T04:19:50.098Z,0
2017-12-02T04:20:30.625Z,0
2017-12-02T04:21:11.136Z,0
2017-12-02T04:21:51.649Z,0
2017-12-02T04:22:32.174Z,0
2017-12-02T04:23:12.706Z,0
2017-12-02T04:23:53.254Z,0
2017-12-02T04:24:33.780Z,0
2017-12-02T04:25:14.328Z,0
2017-12-02T04:25:54.854Z,0
2017-12-02T04:26:35.498Z,0
2017-12-02T04:27:16.009Z,0
2017-12-02T04:27:57.095Z,0
2017-12-02T04:28:37.077Z,0
2017-12-02T04:29:17.571Z,0
2017-12-02T04:29:58.100Z,0
2017-12-02T04:30:38.657Z,0
2017-12-02T04:31:19.156Z,0
2017-12-02T04:31:59.673Z,0
2017-12-02T04:32:40.223Z,0
2017-12-02T04:33:20.755Z,0
2017-12-02T04:34:01.317Z,0
2017-12-02T04:34:41.888Z,0
2017-12-02T04:35:22.394Z,0
2017-12-02T04:36:02.936Z,0
2017-12-02T04:36:43.473Z,0
2017-12-02T04:37:24.061Z,0
2017-12-02T04:38:04.592Z,0
2017-12-02T04:38:45.132Z,0
2017-12-02T04:39:25.653Z,0
2017-12-02T04:40:06.191Z,0
2017-12-02T04:40:46.739Z,0
2017-12-02T04:41:27.250Z,0
2017-12-02T04:42:07.792Z,0
2017-12-02T04:42:48.383Z,0
2017-12-02T04:43:28.893Z,0
2017-12-02T04:44:09.363Z,0
2017-12-02T04:44:49.893Z,0
2017-12-02T04:45:30.440Z,0
2017-12-02T04:46:10.994Z,0
2017-12-02T04:46:51.484Z,0
2017-12-02T04:47:32.191Z,0
2017-12-02T04:48:12.710Z,0
2017-12-02T04:48:53.249Z,0
2017-12-02T04:49:33.762Z,0
2017-12-02T04:50:14.320Z,0
2017-12-02T04:50:54.861Z,0
2017-12-02T04:51:35.342Z,0
2017-12-02T04:52:15.882Z,0
2017-12-02T04:52:56.441Z,0
2017-12-02T04:53:36.988Z,0
2017-12-02T04:54:17.492Z,0
2017-12-02T04:54:58.019Z,0
2017-12-02T04:55:38.585Z,0
2017-12-02T04:56:19.076Z,0
2017-12-02T04:56:59.613Z,0
2017-12-02T04:57:40.166Z,0
2017-12-02T04:58:20.704Z,0
2017-12-02T04:59:01.230Z,0
2017-12-02T04:59:41.763Z,0
2017-12-02T05:00:22.277Z,0
2017-12-02T05:01:02.807Z,0
2017-12-02T05:01:43.332Z,0
2017-12-02T05:02:23.870Z,0
2017-12-02T05:03:04.416Z,0
2017-12-02T05:03:44.916Z,0
2017-12-02T05:04:25.441Z,0
2017-12-02T05:05:05.974Z,0
2017-12-02T05:05:46.486Z,0
2017-12-02T05:06:26.997Z,0
2017-12-02T05:07:07.520Z,0
2017-12-02T05:07:48.061Z,0
2017-12-02T05:08:28.581Z,0
2017-12-02T05:09:09.112Z,0
2017-12-02T05:09:49.690Z,0
2017-12-02T05:10:30.217Z,0
2017-12-02T05:11:10.734Z,0
2017-12-02T05:11:51.283Z,0
2017-12-02T05:12:31.777Z,0
2017-12-02T05:13:12.330Z,0
2017-12-02T05:13:52.888Z,0
2017-12-02T05:14:33.438Z,0
2017-12-02T05:15:13.902Z,0
2017-12-02T05:15:54.459Z,0
2017-12-02T05:16:34.980Z,0
2017-12-02T05:17:15.458Z,0
2017-12-02T05:17:56.018Z,0
2017-12-02T05:18:36.539Z,0
2017-12-02T05:19:17.130Z,0
2017-12-02T05:19:57.632Z,0
2017-12-02T05:20:38.186Z,0
2017-12-02T05:21:18.672Z,0
2017-12-02T05:21:59.208Z,0
2017-12-02T05:22:39.762Z,0
2017-12-02T05:23:20.264Z,0
2017-12-02T05:24:00.771Z,0
2017-12-02T05:24:41.324Z,0
2017-12-02T05:25:21.862Z,0
2017-12-02T05:26:02.385Z,0
2017-12-02T05:26:42.920Z,0
2017-12-02T05:27:23.417Z,0
2017-12-02T05:28:03.959Z,0
2017-12-02T05:28:44.504Z,0
2017-12-02T05:29:25.084Z,0
2017-12-02T05:30:05.630Z,0
2017-12-02T05:30:46.161Z,0
2017-12-02T05:31:26.679Z,0
2017-12-02T05:32:07.212Z,0
2017-12-02T05:32:47.713Z,0
2017-12-02T05:33:28.271Z,0
2017-12-02T05:34:08.822Z,0
2017-12-02T05:34:49.348Z,0
2017-12-02T05:35:29.818Z,0
2017-12-02T05:36:10.377Z,0
2017-12-02T05:36:50.925Z,0
2017-12-02T05:37:31.429Z,0
2017-12-02T05:38:11.965Z,0
2017-12-02T05:38:52.466Z,0
2017-12-02T05:39:33.007Z,0
2017-12-02T05:40:13.525Z,0
2017-12-02T05:40:54.050Z,0
2017-12-02T05:41:34.620Z,0
2017-12-02T05:42:15.126Z,0
2017-12-02T05:42:55.672Z,0
2017-12-02T05:43:36.220Z,0
2017-12-02T05:44:16.768Z,0
2017-12-02T05:44:57.299Z,0
2017-12-02T05:45:37.796Z,0
2017-12-02T05:46:18.316Z,0
2017-12-02T05:46:58.886Z,0
2017-12-02T05:47:39.382Z,0
2017-12-02T05:48:19.884Z,0
2017-12-02T05:49:00.421Z,0
2017-12-02T05:49:40.976Z,0
2017-12-02T05:50:21.474Z,0
2017-12-02T05:51:02.033Z,0
2017-12-02T05:51:42.554Z,0
2017-12-02T05:52:23.104Z,0
2017-12-02T05:53:03.639Z,0
2017-12-02T05:53:44.198Z,0
2017-12-02T05:54:24.734Z,0
2017-12-02T05:55:05.204Z,0
2017-12-02T05:55:45.759Z,0
2017-12-02T05:56:26.289Z,0
2017-12-02T05:57:06.825Z,0
2017-12-02T05:57:47.340Z,0
2017-12-02T05:58:27.869Z,0
2017-12-02T05:59:08.367Z,0
2017-12-02T05:59:48.911Z,0
2017-12-02T06:00:29.429Z,0
2017-12-02T06:01:09.965Z,0
2017-12-02T06:01:50.497Z,0
2017-12-02T06:02:31.062Z,0
2017-12-02T06:03:11.587Z,0
2017-12-02T06:03:52.138Z,0
2017-12-02T06:04:32.705Z,0
2017-12-02T06:05:13.219Z,0
2017-12-02T06:05:53.764Z,0
2017-12-02T06:06:34.291Z,0
2017-12-02T06:07:14.856Z,0
2017-12-02T06:07:55.361Z,0
2017-12-02T06:08:35.915Z,0
2017-12-02T06:09:16.465Z,0
2017-12-02T06:09:57.036Z,0
2017-12-02T06:10:37.582Z,0
2017-12-02T06:11:18.129Z,0
2017-12-02T06:11:58.761Z,0
2017-12-02T06:12:39.298Z,0
2017-12-02T06:13:19.757Z,0
2017-12-02T06:14:00.297Z,0
2017-12-02T06:14:40.867Z,0
2017-12-02T06:15:21.355Z,0
2017-12-02T06:16:01.883Z,0
2017-12-02T06:16:42.412Z,0
2017-12-02T06:17:22.986Z,0
2017-12-02T06:18:03.473Z,0
2017-12-02T06:18:44.049Z,0
2017-12-02T06:19:24.556Z,0
2017-12-02T06:20:05.107Z,0
2017-12-02T06:20:45.626Z,0
2017-12-02T06:21:26.148Z,0
2017-12-02T06:22:06.676Z,0
2017-12-02T06:22:47.219Z,0
2017-12-02T06:23:27.778Z,0
2017-12-02T06:24:08.309Z,0
2017-12-02T06:24:48.793Z,0
2017-12-02T06:25:29.329Z,0
2017-12-02T06:26:09.860Z,0
2017-12-02T06:26:50.364Z,0
2017-12-02T06:27:30.891Z,0
2017-12-02T06:28:11.432Z,0
2017-12-02T06:28:51.994Z,0
2017-12-02T06:29:32.548Z,4
2017-12-02T06:30:13.088Z,4
2017-12-02T06:30:53.619Z,4
2017-12-02T06:31:34.169Z,0
2017-12-02T06:32:14.666Z,0
2017-12-02T06:32:55.180Z,0
2017-12-02T06:33:35.684Z,0
2017-12-02T06:34:16.202Z,4
2017-12-02T06:34:56.763Z,4
2017-12-02T06:35:37.297Z,4
2017-12-02T06:36:17.887Z,4
2017-12-02T06:36:58.412Z,4
2017-12-02T06:37:38.938Z,4
2017-12-02T06:38:19.476Z,4
2017-12-02T06:39:00.043Z,4
2017-12-02T06:39:40.552Z,8
2017-12-02T06:40:21.097Z,4
2017-12-02T06:41:01.637Z,8
2017-12-02T06:41:42.166Z,8
2017-12-02T06:42:22.787Z,12
2017-12-02T06:43:03.321Z,12
2017-12-02T06:43:43.845Z,12
2017-12-02T06:44:24.376Z,12
2017-12-02T06:45:04.933Z,12
2017-12-02T06:45:45.476Z,16
2017-12-02T06:46:25.988Z,16
2017-12-02T06:47:06.507Z,16
2017-12-02T06:47:47.033Z,16
2017-12-02T06:48:27.605Z,20
2017-12-02T06:49:08.091Z,20
2017-12-02T06:49:48.652Z,20
2017-12-02T06:50:29.147Z,24
2017-12-02T06:51:09.706Z,24
2017-12-02T06:51:50.263Z,28
2017-12-02T06:52:30.723Z,28
2017-12-02T06:53:11.272Z,32
2017-12-02T06:53:52.071Z,32
2017-12-02T06:54:32.392Z,32
2017-12-02T06:55:12.941Z,28
2017-12-02T06:55:53.462Z,32
2017-12-02T06:56:33.959Z,32
2017-12-02T06:57:14.487Z,36
2017-12-02T06:57:55.064Z,32
2017-12-02T06:58:35.558Z,36
2017-12-02T06:59:16.116Z,36
2017-12-02T06:59:56.658Z,36
2017-12-02T07:00:37.205Z,32
2017-12-02T07:01:17.749Z,32
2017-12-02T07:01:58.313Z,32
2017-12-02T07:02:38.837Z,36
2017-12-02T07:03:19.441Z,40
2017-12-02T07:03:59.991Z,44
2017-12-02T07:04:40.520Z,44
2017-12-02T07:05:21.031Z,48
2017-12-02T07:06:01.597Z,48
2017-12-02T07:06:42.080Z,48
2017-12-02T07:07:22.602Z,48
2017-12-02T07:08:03.087Z,52
2017-12-02T07:08:43.623Z,56
2017-12-02T07:09:24.253Z,60
2017-12-02T07:10:04.749Z,64
2017-12-02T07:10:45.459Z,68
2017-12-02T07:11:25.989Z,68
2017-12-02T07:12:06.527Z,72
2017-12-02T07:12:47.067Z,76
2017-12-02T07:13:27.599Z,76
2017-12-02T07:14:08.130Z,84
2017-12-02T07:14:48.646Z,84
2017-12-02T07:15:29.182Z,92
2017-12-02T07:16:09.718Z,96
2017-12-02T07:16:50.252Z,100
2017-12-02T07:17:30.801Z,108
2017-12-02T07:18:11.306Z,116
2017-12-02T07:18:51.846Z,120
2017-12-02T07:19:32.414Z,128
2017-12-02T07:20:12.974Z,140
2017-12-02T07:20:53.458Z,148
2017-12-02T07:21:34.041Z,140
2017-12-02T07:22:14.520Z,144
2017-12-02T07:22:55.084Z,152
2017-12-02T07:23:35.595Z,160
2017-12-02T07:24:16.125Z,188
2017-12-02T07:24:56.648Z,208
2017-12-02T07:25:37.158Z,216
2017-12-02T07:26:17.693Z,224
2017-12-02T07:26:58.284Z,236
2017-12-02T07:27:38.796Z,240
2017-12-02T07:28:19.288Z,256
2017-12-02T07:28:59.856Z,248
2017-12-02T07:29:40.389Z,252
2017-12-02T07:30:20.936Z,256
2017-12-02T07:31:01.446Z,256
2017-12-02T07:31:41.992Z,248
2017-12-02T07:32:22.510Z,244
2017-12-02T07:33:03.050Z,252
2017-12-02T07:33:43.592Z,256
2017-12-02T07:34:24.220Z,264
2017-12-02T07:35:04.768Z,268
2017-12-02T07:35:45.313Z,272
2017-12-02T07:36:25.894Z,280
2017-12-02T07:37:06.424Z,292
2017-12-02T07:37:47.004Z,312
2017-12-02T07:38:27.492Z,344
2017-12-02T07:39:08.059Z,356
2017-12-02T07:39:48.592Z,360
2017-12-02T07:40:29.081Z,360
2017-12-02T07:41:09.590Z,360
2017-12-02T07:41:50.100Z,380
2017-12-02T07:42:30.641Z,400
2017-12-02T07:43:11.117Z,412
2017-12-02T07:43:51.649Z,408
2017-12-02T07:44:32.193Z,404
2017-12-02T07:45:12.696Z,424
2017-12-02T07:45:53.279Z,452
2017-12-02T07:46:33.904Z,452
2017-12-02T07:47:14.430Z,460
2017-12-02T07:47:54.944Z,436
2017-12-02T07:48:35.531Z,412
2017-12-02T07:49:16.075Z,388
2017-12-02T07:49:56.567Z,404
2017-12-02T07:50:37.141Z,412
2017-12-02T07:51:17.637Z,404
2017-12-02T07:51:58.160Z,400
2017-12-02T07:52:38.695Z,408
2017-12-02T07:53:19.238Z,428
2017-12-02T07:53:59.726Z,428
2017-12-02T07:54:40.290Z,444
2017-12-02T07:55:20.806Z,440
2017-12-02T07:56:01.398Z,420
2017-12-02T07:56:41.879Z,404
2017-12-02T07:57:22.436Z,416
2017-12-02T07:58:02.977Z,440
2017-12-02T07:58:43.499Z,460
2017-12-02T07:59:24.004Z,452
2017-12-02T08:00:04.600Z,436
2017-12-02T08:00:45.149Z,416
2017-12-02T08:01:25.634Z,400
2017-12-02T08:02:06.172Z,392
2017-12-02T08:02:46.697Z,400
2017-12-02T08:03:27.209Z,400
2017-12-02T08:04:07.760Z,408
2017-12-02T08:04:48.307Z,424
2017-12-02T08:05:28.837Z,460
2017-12-02T08:06:09.392Z,480
2017-12-02T08:06:49.935Z,480
2017-12-02T08:07:30.492Z,488
2017-12-02T08:08:11.099Z,496
2017-12-02T08:08:51.587Z,492
2017-12-02T08:09:32.126Z,504
2017-12-02T08:10:12.696Z,532
2017-12-02T08:10:53.217Z,544
2017-12-02T08:11:33.761Z,564
2017-12-02T08:12:14.310Z,564
2017-12-02T08:12:54.932Z,552
2017-12-02T08:13:35.471Z,528
2017-12-02T08:14:15.977Z,524
2017-12-02T08:14:56.518Z,524
2017-12-02T08:15:37.055Z,532
2017-12-02T08:16:17.590Z,564
2017-12-02T08:16:58.141Z,604
2017-12-02T08:17:38.690Z,600
2017-12-02T08:18:19.206Z,640
2017-12-02T08:18:59.685Z,712
2017-12-02T08:19:40.233Z,716
2017-12-02T08:20:20.810Z,716
2017-12-02T08:21:01.467Z,756
2017-12-02T08:21:42.007Z,796
2017-12-02T08:22:22.552Z,752
2017-12-02T08:23:03.062Z,732
2017-12-02T08:23:43.606Z,780
2017-12-02T08:24:24.169Z,760
2017-12-02T08:25:04.668Z,780
2017-12-02T08:25:45.178Z,772
2017-12-02T08:26:25.737Z,744
2017-12-02T08:27:06.267Z,732
2017-12-02T08:27:46.836Z,732
2017-12-02T08:28:27.349Z,712
2017-12-02T08:29:07.876Z,696
2017-12-02T08:29:48.417Z,676
2017-12-02T08:30:28.945Z,680
2017-12-02T08:31:09.478Z,692
2017-12-02T08:31:49.989Z,696
2017-12-02T08:32:30.578Z,680
2017-12-02T08:33:11.190Z,684
2017-12-02T08:33:51.643Z,696
2017-12-02T08:34:32.185Z,724
2017-12-02T08:35:12.739Z,720
2017-12-02T08:35:53.244Z,772
2017-12-02T08:36:33.802Z,816
2017-12-02T08:37:14.378Z,884
2017-12-02T08:37:54.902Z,948
2017-12-02T08:38:35.414Z,1028
2017-12-02T08:39:15.950Z,1052
2017-12-02T08:39:56.512Z,1016
2017-12-02T08:40:37.024Z,968
2017-12-02T08:41:17.567Z,996
2017-12-02T08:41:58.088Z,1084
2017-12-02T08:42:38.626Z,1120
2017-12-02T08:43:19.113Z,1180
2017-12-02T08:43:59.742Z,1316
2017-12-02T08:44:40.279Z,1420
2017-12-02T08:45:20.785Z,1476
2017-12-02T08:46:01.293Z,1412
2017-12-02T08:46:41.835Z,1392
2017-12-02T08:47:22.342Z,1400
2017-12-02T08:48:02.828Z,1468
2017-12-02T08:48:43.413Z,1428
2017-12-02T08:49:23.937Z,1356
2017-12-02T08:50:04.458Z,1304
2017-12-02T08:50:45.048Z,1260
2017-12-02T08:51:25.645Z,1232
2017-12-02T08:52:06.211Z,1148
2017-12-02T08:52:46.745Z,1144
2017-12-02T08:53:27.260Z,1112
2017-12-02T08:54:07.816Z,1104
2017-12-02T08:54:48.337Z,1064
2017-12-02T08:55:28.894Z,992
2017-12-02T08:56:09.449Z,964
2017-12-02T08:56:50.022Z,920
2017-12-02T08:57:30.611Z,940
2017-12-02T08:58:11.130Z,1008
2017-12-02T08:58:51.688Z,1016
2017-12-02T08:59:32.219Z,1040
2017-12-02T09:00:12.763Z,1036
2017-12-02T09:00:53.280Z,988
2017-12-02T09:01:33.782Z,960
2017-12-02T09:02:14.306Z,972
2017-12-02T09:02:54.890Z,1000
2017-12-02T09:03:35.439Z,1000
2017-12-02T09:04:16.060Z,972
2017-12-02T09:04:56.581Z,964
2017-12-02T09:05:37.069Z,972
2017-12-02T09:06:17.673Z,996
2017-12-02T09:06:58.288Z,996
2017-12-02T09:07:38.676Z,948
2017-12-02T09:08:19.237Z,896
2017-12-02T09:08:59.798Z,868
2017-12-02T09:09:41.052Z,844
2017-12-02T09:10:21.433Z,824
2017-12-02T09:11:02.002Z,824
2017-12-02T09:11:42.685Z,836
2017-12-02T09:12:23.254Z,840
2017-12-02T09:13:03.734Z,848
2017-12-02T09:13:44.275Z,824
2017-12-02T09:14:24.814Z,808
2017-12-02T09:15:05.380Z,836
2017-12-02T09:15:45.970Z,856
2017-12-02T09:16:26.540Z,852
2017-12-02T09:17:07.092Z,832
2017-12-02T09:17:47.614Z,876
2017-12-02T09:18:28.153Z,912
2017-12-02T09:19:08.744Z,912
2017-12-02T09:19:49.263Z,884
2017-12-02T09:20:29.789Z,840
2017-12-02T09:21:10.286Z,836
2017-12-02T09:21:50.873Z,840
2017-12-02T09:22:31.422Z,848
2017-12-02T09:23:11.910Z,844
2017-12-02T09:23:52.429Z,832
2017-12-02T09:24:32.970Z,832
2017-12-02T09:25:13.469Z,852
2017-12-02T09:25:53.961Z,872
2017-12-02T09:26:34.519Z,876
2017-12-02T09:27:15.025Z,944
2017-12-02T09:27:55.571Z,1008
2017-12-02T09:28:36.111Z,1036
2017-12-02T09:29:16.831Z,1052
2017-12-02T09:29:57.404Z,956
2017-12-02T09:30:37.937Z,896
2017-12-02T09:31:18.491Z,920
2017-12-02T09:31:58.993Z,1004
2017-12-02T09:32:39.484Z,1056
2017-12-02T09:33:20.020Z,1084
2017-12-02T09:34:00.576Z,1084
2017-12-02T09:34:41.125Z,1080
2017-12-02T09:35:21.645Z,1076
2017-12-02T09:36:02.166Z,1056
2017-12-02T09:36:42.739Z,1064
2017-12-02T09:37:23.251Z,1064
2017-12-02T09:38:03.775Z,1052
2017-12-02T09:38:44.363Z,1076
2017-12-02T09:39:24.878Z,1092
2017-12-02T09:40:05.450Z,1096
2017-12-02T09:40:46.015Z,1120
2017-12-02T09:41:26.675Z,1128
2017-12-02T09:42:07.161Z,1116
2017-12-02T09:42:47.728Z,1140
2017-12-02T09:43:28.359Z,1100
2017-12-02T09:44:08.879Z,1060
2017-12-02T09:44:49.374Z,1028
2017-12-02T09:45:29.880Z,1004
2017-12-02T09:46:10.405Z,992